sensor_id;sensor_type;location;lat;lon;timestamp;temperature;humidity
23149;DHT22;11743;51.228;22.498;2023-11-21T00:00:13;0.30;99.90
23149;DHT22;11743;51.228;22.498;2023-11-21T00:00:36;0.20;99.90
23149;DHT22;11743;51.228;22.498;2023-11-21T00:00:58;0.20;99.90
23149;DHT22;11743;51.228;22.498;2023-11-21T00:01:20;0.20;99.90
23149;DHT22;11743;51.228;22.498;2023-11-21T00:01:42;0.20;99.90
23149;DHT22;11743;51.228;22.498;2023-11-21T00:02:05;0.20;99.90
23149;DHT22;11743;51.228;22.498;2023-11-21T00:02:27;0.20;99.90
23149;DHT22;11743;51.228;22.498;2023-11-21T00:02:49;0.20;99.90
23149;DHT22;11743;51.228;22.498;2023-11-21T00:03:11;0.20;99.90
23149;DHT22;11743;51.228;22.498;2023-11-21T00:03:36;0.30;99.90
23149;DHT22;11743;51.228;22.498;2023-11-21T00:03:58;0.20;99.90
23149;DHT22;11743;51.228;22.498;2023-11-21T00:04:20;0.30;99.90
23149;DHT22;11743;51.228;22.498;2023-11-21T00:04:43;0.30;99.90
23149;DHT22;11743;51.228;22.498;2023-11-21T00:05:05;0.30;99.90
23149;DHT22;11743;51.228;22.498;2023-11-21T00:05:28;0.30;99.90
23149;DHT22;11743;51.228;22.498;2023-11-21T00:05:50;0.30;99.90
23149;DHT22;11743;51.228;22.498;2023-11-21T00:06:12;0.20;99.90
23149;DHT22;11743;51.228;22.498;2023-11-21T00:06:33;0.30;99.90
23149;DHT22;11743;51.228;22.498;2023-11-21T00:06:55;0.30;99.90
23149;DHT22;11743;51.228;22.498;2023-11-21T00:07:17;0.30;99.90
23149;DHT22;11743;51.228;22.498;2023-11-21T00:07:40;0.30;99.90
23149;DHT22;11743;51.228;22.498;2023-11-21T00:08:02;0.30;99.90
23149;DHT22;11743;51.228;22.498;2023-11-21T00:08:24;0.30;99.90
23149;DHT22;11743;51.228;22.498;2023-11-21T00:08:46;0.30;99.90
23149;DHT22;11743;51.228;22.498;2023-11-21T00:09:07;0.20;99.90
23149;DHT22;11743;51.228;22.498;2023-11-21T00:09:30;0.30;99.90
23149;DHT22;11743;51.228;22.498;2023-11-21T00:09:51;0.30;99.90
23149;DHT22;11743;51.228;22.498;2023-11-21T00:10:13;0.30;99.90
23149;DHT22;11743;51.228;22.498;2023-11-21T00:10:36;0.20;99.90
23149;DHT22;11743;51.228;22.498;2023-11-21T00:11:00;0.30;99.90
23149;DHT22;11743;51.228;22.498;2023-11-21T00:11:22;0.30;99.90
23149;DHT22;11743;51.228;22.498;2023-11-21T00:11:44;0.30;99.90
23149;DHT22;11743;51.228;22.498;2023-11-21T00:12:07;0.30;99.90
23149;DHT22;11743;51.228;22.498;2023-11-21T00:12:32;0.30;99.90
23149;DHT22;11743;51.228;22.498;2023-11-21T00:12:55;0.30;99.90
23149;DHT22;11743;51.228;22.498;2023-11-21T00:13:17;0.30;99.90
23149;DHT22;11743;51.228;22.498;2023-11-21T00:13:39;0.30;99.90
23149;DHT22;11743;51.228;22.498;2023-11-21T00:14:01;0.30;99.90
23149;DHT22;11743;51.228;22.498;2023-11-21T00:14:24;0.30;99.90
23149;DHT22;11743;51.228;22.498;2023-11-21T00:14:46;0.30;99.90
23149;DHT22;11743;51.228;22.498;2023-11-21T00:15:09;0.30;99.90
23149;DHT22;11743;51.228;22.498;2023-11-21T00:15:32;0.30;99.90
23149;DHT22;11743;51.228;22.498;2023-11-21T00:15:54;0.30;99.90
23149;DHT22;11743;51.228;22.498;2023-11-21T00:16:16;0.30;99.90
23149;DHT22;11743;51.228;22.498;2023-11-21T00:16:38;0.20;99.90
23149;DHT22;11743;51.228;22.498;2023-11-21T00:17:01;0.20;99.90
23149;DHT22;11743;51.228;22.498;2023-11-21T00:17:23;0.20;99.90
23149;DHT22;11743;51.228;22.498;2023-11-21T00:17:46;0.30;99.90
23149;DHT22;11743;51.228;22.498;2023-11-21T00:18:08;0.20;99.90
23149;DHT22;11743;51.228;22.498;2023-11-21T00:18:30;0.20;99.90
23149;DHT22;11743;51.228;22.498;2023-11-21T00:18:52;0.20;99.90
23149;DHT22;11743;51.228;22.498;2023-11-21T00:19:14;0.20;99.90
23149;DHT22;11743;51.228;22.498;2023-11-21T00:19:36;0.20;99.90
23149;DHT22;11743;51.228;22.498;2023-11-21T00:19:58;0.20;99.90
23149;DHT22;11743;51.228;22.498;2023-11-21T00:20:20;0.20;99.90
23149;DHT22;11743;51.228;22.498;2023-11-21T00:20:42;0.20;99.90
23149;DHT22;11743;51.228;22.498;2023-11-21T00:21:04;0.20;99.90
23149;DHT22;11743;51.228;22.498;2023-11-21T00:21:26;0.20;99.90
23149;DHT22;11743;51.228;22.498;2023-11-21T00:21:48;0.20;99.90
23149;DHT22;11743;51.228;22.498;2023-11-21T00:22:10;0.20;99.90
23149;DHT22;11743;51.228;22.498;2023-11-21T00:22:35;0.20;99.90
23149;DHT22;11743;51.228;22.498;2023-11-21T00:22:57;0.20;99.90
23149;DHT22;11743;51.228;22.498;2023-11-21T00:23:21;0.20;99.90
23149;DHT22;11743;51.228;22.498;2023-11-21T00:23:42;0.20;99.90
23149;DHT22;11743;51.228;22.498;2023-11-21T00:24:05;0.20;99.90
23149;DHT22;11743;51.228;22.498;2023-11-21T00:24:27;0.20;99.90
23149;DHT22;11743;51.228;22.498;2023-11-21T00:24:48;0.20;99.90
23149;DHT22;11743;51.228;22.498;2023-11-21T00:25:12;0.20;99.90
23149;DHT22;11743;51.228;22.498;2023-11-21T00:25:38;0.20;99.90
23149;DHT22;11743;51.228;22.498;2023-11-21T00:26:01;0.30;99.90
23149;DHT22;11743;51.228;22.498;2023-11-21T00:26:23;0.20;99.90
23149;DHT22;11743;51.228;22.498;2023-11-21T00:26:45;0.20;99.90
23149;DHT22;11743;51.228;22.498;2023-11-21T00:27:10;0.20;99.90
23149;DHT22;11743;51.228;22.498;2023-11-21T00:27:32;0.20;99.90
23149;DHT22;11743;51.228;22.498;2023-11-21T00:27:54;0.20;99.90
23149;DHT22;11743;51.228;22.498;2023-11-21T00:28:16;0.20;99.90
23149;DHT22;11743;51.228;22.498;2023-11-21T00:28:37;0.20;99.90
23149;DHT22;11743;51.228;22.498;2023-11-21T00:28:59;0.30;99.90
23149;DHT22;11743;51.228;22.498;2023-11-21T00:29:21;0.20;99.90
23149;DHT22;11743;51.228;22.498;2023-11-21T00:29:43;0.20;99.90
23149;DHT22;11743;51.228;22.498;2023-11-21T00:30:05;0.10;99.90
23149;DHT22;11743;51.228;22.498;2023-11-21T00:30:28;0.20;99.90
23149;DHT22;11743;51.228;22.498;2023-11-21T00:30:50;0.20;99.90
23149;DHT22;11743;51.228;22.498;2023-11-21T00:31:12;0.20;99.90
23149;DHT22;11743;51.228;22.498;2023-11-21T00:31:35;0.20;99.90
23149;DHT22;11743;51.228;22.498;2023-11-21T00:32:01;0.20;99.90
23149;DHT22;11743;51.228;22.498;2023-11-21T00:32:23;0.20;99.90
23149;DHT22;11743;51.228;22.498;2023-11-21T00:32:46;0.20;99.90
23149;DHT22;11743;51.228;22.498;2023-11-21T00:33:08;0.20;99.90
23149;DHT22;11743;51.228;22.498;2023-11-21T00:33:30;0.20;99.90
23149;DHT22;11743;51.228;22.498;2023-11-21T00:33:52;0.10;99.90
23149;DHT22;11743;51.228;22.498;2023-11-21T00:34:14;0.20;99.90
23149;DHT22;11743;51.228;22.498;2023-11-21T00:34:35;0.20;99.90
23149;DHT22;11743;51.228;22.498;2023-11-21T00:34:57;0.20;99.90
23149;DHT22;11743;51.228;22.498;2023-11-21T00:35:21;0.20;99.90
23149;DHT22;11743;51.228;22.498;2023-11-21T00:35:42;0.20;99.90
23149;DHT22;11743;51.228;22.498;2023-11-21T00:36:05;0.20;99.90
23149;DHT22;11743;51.228;22.498;2023-11-21T00:36:31;0.20;99.90
23149;DHT22;11743;51.228;22.498;2023-11-21T00:36:53;0.20;99.90
23149;DHT22;11743;51.228;22.498;2023-11-21T00:37:15;0.20;99.90
23149;DHT22;11743;51.228;22.498;2023-11-21T00:37:37;0.10;99.90
23149;DHT22;11743;51.228;22.498;2023-11-21T00:38:01;0.10;99.90
23149;DHT22;11743;51.228;22.498;2023-11-21T00:38:23;0.10;99.90
23149;DHT22;11743;51.228;22.498;2023-11-21T00:38:45;0.20;99.90
23149;DHT22;11743;51.228;22.498;2023-11-21T00:39:06;0.10;99.90
23149;DHT22;11743;51.228;22.498;2023-11-21T00:39:29;0.20;99.90
23149;DHT22;11743;51.228;22.498;2023-11-21T00:39:50;0.10;99.90
23149;DHT22;11743;51.228;22.498;2023-11-21T00:40:13;0.20;99.90
23149;DHT22;11743;51.228;22.498;2023-11-21T00:40:37;0.20;99.90
23149;DHT22;11743;51.228;22.498;2023-11-21T00:40:59;0.10;99.90
23149;DHT22;11743;51.228;22.498;2023-11-21T00:41:21;0.10;99.90
23149;DHT22;11743;51.228;22.498;2023-11-21T00:41:43;1.60;99.90
23149;DHT22;11743;51.228;22.498;2023-11-21T00:42:06;0.10;99.90
23149;DHT22;11743;51.228;22.498;2023-11-21T00:42:28;0.10;99.90
23149;DHT22;11743;51.228;22.498;2023-11-21T00:42:50;0.10;99.90
23149;DHT22;11743;51.228;22.498;2023-11-21T00:43:12;0.10;99.90
23149;DHT22;11743;51.228;22.498;2023-11-21T00:43:34;0.10;99.90
23149;DHT22;11743;51.228;22.498;2023-11-21T00:43:56;0.10;99.90
23149;DHT22;11743;51.228;22.498;2023-11-21T00:44:18;0.10;99.90
23149;DHT22;11743;51.228;22.498;2023-11-21T00:44:39;0.10;99.90
23149;DHT22;11743;51.228;22.498;2023-11-21T00:45:01;0.10;99.90
23149;DHT22;11743;51.228;22.498;2023-11-21T00:45:25;0.10;99.90
23149;DHT22;11743;51.228;22.498;2023-11-21T00:45:47;0.10;99.90
23149;DHT22;11743;51.228;22.498;2023-11-21T00:46:10;0.10;99.90
23149;DHT22;11743;51.228;22.498;2023-11-21T00:46:32;0.20;99.90
23149;DHT22;11743;51.228;22.498;2023-11-21T00:46:54;0.10;99.90
23149;DHT22;11743;51.228;22.498;2023-11-21T00:47:16;0.10;99.90
23149;DHT22;11743;51.228;22.498;2023-11-21T00:47:38;0.20;99.90
23149;DHT22;11743;51.228;22.498;2023-11-21T00:48:00;0.20;99.90
23149;DHT22;11743;51.228;22.498;2023-11-21T00:48:22;0.20;99.90
23149;DHT22;11743;51.228;22.498;2023-11-21T00:48:44;0.20;99.90
23149;DHT22;11743;51.228;22.498;2023-11-21T00:49:06;0.10;99.90
23149;DHT22;11743;51.228;22.498;2023-11-21T00:49:27;0.40;99.90
23149;DHT22;11743;51.228;22.498;2023-11-21T00:49:49;0.10;99.90
23149;DHT22;11743;51.228;22.498;2023-11-21T00:50:12;0.70;99.90
23149;DHT22;11743;51.228;22.498;2023-11-21T00:50:33;0.10;99.90
23149;DHT22;11743;51.228;22.498;2023-11-21T00:50:55;0.10;99.90
23149;DHT22;11743;51.228;22.498;2023-11-21T00:51:17;0.10;99.90
23149;DHT22;11743;51.228;22.498;2023-11-21T00:51:39;0.10;99.90
23149;DHT22;11743;51.228;22.498;2023-11-21T00:52:01;0.10;99.90
23149;DHT22;11743;51.228;22.498;2023-11-21T00:52:24;0.10;99.90
23149;DHT22;11743;51.228;22.498;2023-11-21T00:52:46;0.20;99.90
23149;DHT22;11743;51.228;22.498;2023-11-21T00:53:08;0.10;99.90
23149;DHT22;11743;51.228;22.498;2023-11-21T00:53:29;0.10;99.90
23149;DHT22;11743;51.228;22.498;2023-11-21T00:53:51;0.10;99.90
23149;DHT22;11743;51.228;22.498;2023-11-21T00:54:13;0.10;99.90
23149;DHT22;11743;51.228;22.498;2023-11-21T00:54:35;0.10;99.90
23149;DHT22;11743;51.228;22.498;2023-11-21T00:54:57;0.10;99.90
23149;DHT22;11743;51.228;22.498;2023-11-21T00:55:21;0.10;99.90
23149;DHT22;11743;51.228;22.498;2023-11-21T00:55:43;0.10;99.90
23149;DHT22;11743;51.228;22.498;2023-11-21T00:56:06;0.10;99.90
23149;DHT22;11743;51.228;22.498;2023-11-21T00:56:30;0.10;99.90
23149;DHT22;11743;51.228;22.498;2023-11-21T00:56:52;0.10;99.90
23149;DHT22;11743;51.228;22.498;2023-11-21T00:57:14;0.10;99.90
23149;DHT22;11743;51.228;22.498;2023-11-21T00:57:36;0.10;99.90
23149;DHT22;11743;51.228;22.498;2023-11-21T00:57:59;0.00;99.90
23149;DHT22;11743;51.228;22.498;2023-11-21T00:58:21;0.10;99.90
23149;DHT22;11743;51.228;22.498;2023-11-21T00:58:43;0.10;99.90
23149;DHT22;11743;51.228;22.498;2023-11-21T00:59:08;0.00;99.90
23149;DHT22;11743;51.228;22.498;2023-11-21T00:59:30;0.00;99.90
23149;DHT22;11743;51.228;22.498;2023-11-21T00:59:52;0.10;99.90
23149;DHT22;11743;51.228;22.498;2023-11-21T01:00:14;0.00;99.90
23149;DHT22;11743;51.228;22.498;2023-11-21T01:00:38;0.00;99.90
23149;DHT22;11743;51.228;22.498;2023-11-21T01:01:03;0.10;99.90
23149;DHT22;11743;51.228;22.498;2023-11-21T01:01:25;0.00;99.90
23149;DHT22;11743;51.228;22.498;2023-11-21T01:01:47;0.00;99.90
23149;DHT22;11743;51.228;22.498;2023-11-21T01:02:10;0.00;99.90
23149;DHT22;11743;51.228;22.498;2023-11-21T01:02:32;0.00;99.90
23149;DHT22;11743;51.228;22.498;2023-11-21T01:02:54;0.00;99.90
23149;DHT22;11743;51.228;22.498;2023-11-21T01:03:16;0.00;99.90
23149;DHT22;11743;51.228;22.498;2023-11-21T01:03:38;0.00;99.90
23149;DHT22;11743;51.228;22.498;2023-11-21T01:04:00;0.00;99.90
23149;DHT22;11743;51.228;22.498;2023-11-21T01:04:22;0.00;99.90
23149;DHT22;11743;51.228;22.498;2023-11-21T01:04:44;0.10;99.90
23149;DHT22;11743;51.228;22.498;2023-11-21T01:05:06;0.00;99.90
23149;DHT22;11743;51.228;22.498;2023-11-21T01:05:29;0.00;99.90
23149;DHT22;11743;51.228;22.498;2023-11-21T01:05:51;0.00;99.90
23149;DHT22;11743;51.228;22.498;2023-11-21T01:06:13;0.00;99.90
23149;DHT22;11743;51.228;22.498;2023-11-21T01:06:37;0.00;99.90
23149;DHT22;11743;51.228;22.498;2023-11-21T01:06:59;0.00;99.90
23149;DHT22;11743;51.228;22.498;2023-11-21T01:07:20;0.00;99.90
23149;DHT22;11743;51.228;22.498;2023-11-21T01:07:42;0.00;99.90
23149;DHT22;11743;51.228;22.498;2023-11-21T01:08:04;0.00;99.90
23149;DHT22;11743;51.228;22.498;2023-11-21T01:08:27;0.00;99.90
23149;DHT22;11743;51.228;22.498;2023-11-21T01:08:49;-0.10;99.90
23149;DHT22;11743;51.228;22.498;2023-11-21T01:09:10;0.00;99.90
23149;DHT22;11743;51.228;22.498;2023-11-21T01:09:32;0.00;99.90
23149;DHT22;11743;51.228;22.498;2023-11-21T01:09:54;0.00;99.90
23149;DHT22;11743;51.228;22.498;2023-11-21T01:10:17;0.00;99.90
23149;DHT22;11743;51.228;22.498;2023-11-21T01:10:39;-0.10;99.90
23149;DHT22;11743;51.228;22.498;2023-11-21T01:11:01;-0.10;99.90
23149;DHT22;11743;51.228;22.498;2023-11-21T01:11:23;0.00;99.90
23149;DHT22;11743;51.228;22.498;2023-11-21T01:11:45;-0.10;99.90
23149;DHT22;11743;51.228;22.498;2023-11-21T01:12:08;-0.10;99.90
23149;DHT22;11743;51.228;22.498;2023-11-21T01:12:29;0.00;99.90
23149;DHT22;11743;51.228;22.498;2023-11-21T01:12:51;-0.10;99.90
23149;DHT22;11743;51.228;22.498;2023-11-21T01:13:14;-0.10;99.90
23149;DHT22;11743;51.228;22.498;2023-11-21T01:13:37;0.00;99.90
23149;DHT22;11743;51.228;22.498;2023-11-21T01:13:59;-0.10;99.90
23149;DHT22;11743;51.228;22.498;2023-11-21T01:14:21;-0.10;99.90
23149;DHT22;11743;51.228;22.498;2023-11-21T01:14:43;0.00;99.90
23149;DHT22;11743;51.228;22.498;2023-11-21T01:15:07;-0.10;99.90
23149;DHT22;11743;51.228;22.498;2023-11-21T01:15:29;-0.10;99.90
23149;DHT22;11743;51.228;22.498;2023-11-21T01:15:51;-0.10;99.90
23149;DHT22;11743;51.228;22.498;2023-11-21T01:16:13;-0.10;99.90
23149;DHT22;11743;51.228;22.498;2023-11-21T01:16:35;-0.10;99.90
23149;DHT22;11743;51.228;22.498;2023-11-21T01:17:00;-0.10;99.90
23149;DHT22;11743;51.228;22.498;2023-11-21T01:17:22;0.20;99.90
23149;DHT22;11743;51.228;22.498;2023-11-21T01:17:44;0.00;99.90
23149;DHT22;11743;51.228;22.498;2023-11-21T01:18:06;-0.10;99.90
23149;DHT22;11743;51.228;22.498;2023-11-21T01:18:29;0.00;99.90
23149;DHT22;11743;51.228;22.498;2023-11-21T01:18:51;0.00;99.90
23149;DHT22;11743;51.228;22.498;2023-11-21T01:19:12;-0.10;99.90
23149;DHT22;11743;51.228;22.498;2023-11-21T01:19:34;-0.10;99.90
23149;DHT22;11743;51.228;22.498;2023-11-21T01:19:56;0.00;99.90
23149;DHT22;11743;51.228;22.498;2023-11-21T01:20:19;0.00;99.90
23149;DHT22;11743;51.228;22.498;2023-11-21T01:20:41;0.00;99.90
23149;DHT22;11743;51.228;22.498;2023-11-21T01:21:03;0.00;99.90
23149;DHT22;11743;51.228;22.498;2023-11-21T01:21:25;0.00;99.90
23149;DHT22;11743;51.228;22.498;2023-11-21T01:21:48;0.00;99.90
23149;DHT22;11743;51.228;22.498;2023-11-21T01:22:10;0.00;99.90
23149;DHT22;11743;51.228;22.498;2023-11-21T01:22:33;-0.10;99.90
23149;DHT22;11743;51.228;22.498;2023-11-21T01:22:55;-0.10;99.90
23149;DHT22;11743;51.228;22.498;2023-11-21T01:23:17;0.00;99.90
23149;DHT22;11743;51.228;22.498;2023-11-21T01:23:39;0.00;99.90
23149;DHT22;11743;51.228;22.498;2023-11-21T01:24:01;0.10;99.90
23149;DHT22;11743;51.228;22.498;2023-11-21T01:24:24;-0.20;99.90
23149;DHT22;11743;51.228;22.498;2023-11-21T01:24:46;0.00;99.90
23149;DHT22;11743;51.228;22.498;2023-11-21T01:25:08;0.00;99.90
23149;DHT22;11743;51.228;22.498;2023-11-21T01:25:30;0.20;99.90
23149;DHT22;11743;51.228;22.498;2023-11-21T01:25:52;0.30;99.90
23149;DHT22;11743;51.228;22.498;2023-11-21T01:26:14;0.00;99.90
23149;DHT22;11743;51.228;22.498;2023-11-21T01:26:36;0.00;99.90
23149;DHT22;11743;51.228;22.498;2023-11-21T01:26:58;0.00;99.90
23149;DHT22;11743;51.228;22.498;2023-11-21T01:27:19;0.00;99.90
23149;DHT22;11743;51.228;22.498;2023-11-21T01:27:42;0.00;99.90
23149;DHT22;11743;51.228;22.498;2023-11-21T01:28:04;0.00;99.90
23149;DHT22;11743;51.228;22.498;2023-11-21T01:28:26;0.00;99.90
23149;DHT22;11743;51.228;22.498;2023-11-21T01:28:48;0.00;99.90
23149;DHT22;11743;51.228;22.498;2023-11-21T01:29:10;0.00;99.90
23149;DHT22;11743;51.228;22.498;2023-11-21T01:29:32;0.00;99.90
23149;DHT22;11743;51.228;22.498;2023-11-21T01:29:54;0.00;99.90
23149;DHT22;11743;51.228;22.498;2023-11-21T01:30:16;0.00;99.90
23149;DHT22;11743;51.228;22.498;2023-11-21T01:30:38;0.00;99.90
23149;DHT22;11743;51.228;22.498;2023-11-21T01:30:59;0.00;99.90
23149;DHT22;11743;51.228;22.498;2023-11-21T01:31:21;0.00;99.90
23149;DHT22;11743;51.228;22.498;2023-11-21T01:31:43;0.00;99.90
23149;DHT22;11743;51.228;22.498;2023-11-21T01:32:05;0.00;99.90
23149;DHT22;11743;51.228;22.498;2023-11-21T01:32:29;0.00;99.90
23149;DHT22;11743;51.228;22.498;2023-11-21T01:32:51;0.00;99.90
23149;DHT22;11743;51.228;22.498;2023-11-21T01:33:13;0.00;99.90
23149;DHT22;11743;51.228;22.498;2023-11-21T01:33:37;0.10;99.90
23149;DHT22;11743;51.228;22.498;2023-11-21T01:33:59;0.00;99.90
23149;DHT22;11743;51.228;22.498;2023-11-21T01:34:21;0.00;99.90
23149;DHT22;11743;51.228;22.498;2023-11-21T01:34:43;0.00;99.90
23149;DHT22;11743;51.228;22.498;2023-11-21T01:35:05;0.00;99.90
23149;DHT22;11743;51.228;22.498;2023-11-21T01:35:30;0.00;99.90
23149;DHT22;11743;51.228;22.498;2023-11-21T01:35:52;0.00;99.90
23149;DHT22;11743;51.228;22.498;2023-11-21T01:36:16;0.00;99.90
23149;DHT22;11743;51.228;22.498;2023-11-21T01:36:38;0.00;99.90
23149;DHT22;11743;51.228;22.498;2023-11-21T01:37:00;0.00;99.90
23149;DHT22;11743;51.228;22.498;2023-11-21T01:37:23;0.00;99.90
23149;DHT22;11743;51.228;22.498;2023-11-21T01:37:44;-0.10;99.90
23149;DHT22;11743;51.228;22.498;2023-11-21T01:38:06;-0.10;99.90
23149;DHT22;11743;51.228;22.498;2023-11-21T01:38:29;-0.10;99.90
23149;DHT22;11743;51.228;22.498;2023-11-21T01:38:51;0.00;99.90
23149;DHT22;11743;51.228;22.498;2023-11-21T01:39:13;-0.10;99.90
23149;DHT22;11743;51.228;22.498;2023-11-21T01:39:37;0.00;99.90
23149;DHT22;11743;51.228;22.498;2023-11-21T01:40:00;-0.10;99.90
23149;DHT22;11743;51.228;22.498;2023-11-21T01:40:23;-0.10;99.90
23149;DHT22;11743;51.228;22.498;2023-11-21T01:40:46;-0.10;99.90
23149;DHT22;11743;51.228;22.498;2023-11-21T01:41:07;-0.10;99.90
23149;DHT22;11743;51.228;22.498;2023-11-21T01:41:29;-0.10;99.90
23149;DHT22;11743;51.228;22.498;2023-11-21T01:41:52;-0.10;99.90
23149;DHT22;11743;51.228;22.498;2023-11-21T01:42:14;-0.10;99.90
23149;DHT22;11743;51.228;22.498;2023-11-21T01:42:36;-0.10;99.90
23149;DHT22;11743;51.228;22.498;2023-11-21T01:42:57;-0.10;99.90
23149;DHT22;11743;51.228;22.498;2023-11-21T01:43:19;0.30;99.90
23149;DHT22;11743;51.228;22.498;2023-11-21T01:43:41;-0.10;99.90
23149;DHT22;11743;51.228;22.498;2023-11-21T01:44:04;-0.10;99.90
23149;DHT22;11743;51.228;22.498;2023-11-21T01:44:29;-0.10;99.90
23149;DHT22;11743;51.228;22.498;2023-11-21T01:44:51;-0.10;99.90
23149;DHT22;11743;51.228;22.498;2023-11-21T01:45:13;-0.10;99.90
23149;DHT22;11743;51.228;22.498;2023-11-21T01:45:35;-0.10;99.90
23149;DHT22;11743;51.228;22.498;2023-11-21T01:45:57;-0.10;99.90
23149;DHT22;11743;51.228;22.498;2023-11-21T01:46:20;-0.10;99.90
23149;DHT22;11743;51.228;22.498;2023-11-21T01:46:43;-0.10;99.90
23149;DHT22;11743;51.228;22.498;2023-11-21T01:47:09;-0.10;99.90
23149;DHT22;11743;51.228;22.498;2023-11-21T01:47:32;-0.10;99.90
23149;DHT22;11743;51.228;22.498;2023-11-21T01:47:55;-0.10;99.90
23149;DHT22;11743;51.228;22.498;2023-11-21T01:48:18;-0.10;99.90
23149;DHT22;11743;51.228;22.498;2023-11-21T01:48:40;-0.10;99.90
23149;DHT22;11743;51.228;22.498;2023-11-21T01:49:02;-0.10;99.90
23149;DHT22;11743;51.228;22.498;2023-11-21T01:49:24;-0.20;99.90
23149;DHT22;11743;51.228;22.498;2023-11-21T01:49:46;-0.20;99.90
23149;DHT22;11743;51.228;22.498;2023-11-21T01:50:15;-0.20;99.90
23149;DHT22;11743;51.228;22.498;2023-11-21T01:50:38;-0.20;99.90
23149;DHT22;11743;51.228;22.498;2023-11-21T01:51:01;-0.20;99.90
23149;DHT22;11743;51.228;22.498;2023-11-21T01:51:23;-0.20;99.90
23149;DHT22;11743;51.228;22.498;2023-11-21T01:51:47;-0.20;99.90
23149;DHT22;11743;51.228;22.498;2023-11-21T01:52:10;-0.20;99.90
23149;DHT22;11743;51.228;22.498;2023-11-21T01:52:34;-0.20;99.90
23149;DHT22;11743;51.228;22.498;2023-11-21T01:52:58;-0.20;99.90
23149;DHT22;11743;51.228;22.498;2023-11-21T01:53:20;-0.10;99.90
23149;DHT22;11743;51.228;22.498;2023-11-21T01:53:42;-0.20;99.90
23149;DHT22;11743;51.228;22.498;2023-11-21T01:54:04;-0.20;99.90
23149;DHT22;11743;51.228;22.498;2023-11-21T01:54:37;-0.20;99.90
23149;DHT22;11743;51.228;22.498;2023-11-21T01:55:00;-0.10;99.90
23149;DHT22;11743;51.228;22.498;2023-11-21T01:55:22;-0.10;99.90
23149;DHT22;11743;51.228;22.498;2023-11-21T01:55:49;-0.10;99.90
23149;DHT22;11743;51.228;22.498;2023-11-21T01:56:11;-0.10;99.90
23149;DHT22;11743;51.228;22.498;2023-11-21T01:56:33;-0.10;99.90
23149;DHT22;11743;51.228;22.498;2023-11-21T01:56:55;-0.10;99.90
23149;DHT22;11743;51.228;22.498;2023-11-21T01:57:19;0.10;99.90
23149;DHT22;11743;51.228;22.498;2023-11-21T01:57:42;-0.20;99.90
23149;DHT22;11743;51.228;22.498;2023-11-21T01:58:04;-0.20;99.90
23149;DHT22;11743;51.228;22.498;2023-11-21T01:58:25;-0.20;99.90
23149;DHT22;11743;51.228;22.498;2023-11-21T01:58:48;-0.20;99.90
23149;DHT22;11743;51.228;22.498;2023-11-21T01:59:10;-0.20;99.90
23149;DHT22;11743;51.228;22.498;2023-11-21T01:59:41;-0.10;99.90
23149;DHT22;11743;51.228;22.498;2023-11-21T02:00:04;-0.20;99.90
23149;DHT22;11743;51.228;22.498;2023-11-21T02:00:38;-0.20;99.90
23149;DHT22;11743;51.228;22.498;2023-11-21T02:01:01;-0.20;99.90
23149;DHT22;11743;51.228;22.498;2023-11-21T02:01:23;-0.10;99.90
23149;DHT22;11743;51.228;22.498;2023-11-21T02:01:45;-0.20;99.90
23149;DHT22;11743;51.228;22.498;2023-11-21T02:02:08;-0.10;99.90
23149;DHT22;11743;51.228;22.498;2023-11-21T02:02:31;-0.10;99.90
23149;DHT22;11743;51.228;22.498;2023-11-21T02:02:53;-0.10;99.90
23149;DHT22;11743;51.228;22.498;2023-11-21T02:03:14;-0.20;99.90
23149;DHT22;11743;51.228;22.498;2023-11-21T02:03:36;-0.10;99.90
23149;DHT22;11743;51.228;22.498;2023-11-21T02:03:58;-0.10;99.90
23149;DHT22;11743;51.228;22.498;2023-11-21T02:04:20;-0.10;99.90
23149;DHT22;11743;51.228;22.498;2023-11-21T02:04:43;-0.20;99.90
23149;DHT22;11743;51.228;22.498;2023-11-21T02:05:05;-0.20;99.90
23149;DHT22;11743;51.228;22.498;2023-11-21T02:05:27;-0.10;99.90
23149;DHT22;11743;51.228;22.498;2023-11-21T02:05:49;-0.20;99.90
23149;DHT22;11743;51.228;22.498;2023-11-21T02:06:11;-0.10;99.90
23149;DHT22;11743;51.228;22.498;2023-11-21T02:06:32;-0.10;99.90
23149;DHT22;11743;51.228;22.498;2023-11-21T02:06:55;-0.10;99.90
23149;DHT22;11743;51.228;22.498;2023-11-21T02:07:17;-0.10;99.90
23149;DHT22;11743;51.228;22.498;2023-11-21T02:07:41;-0.10;99.90
23149;DHT22;11743;51.228;22.498;2023-11-21T02:08:06;-0.10;99.90
23149;DHT22;11743;51.228;22.498;2023-11-21T02:08:31;-0.10;99.90
23149;DHT22;11743;51.228;22.498;2023-11-21T02:08:53;-0.10;99.90
23149;DHT22;11743;51.228;22.498;2023-11-21T02:09:15;0.00;99.90
23149;DHT22;11743;51.228;22.498;2023-11-21T02:09:37;-0.10;99.90
23149;DHT22;11743;51.228;22.498;2023-11-21T02:10:00;-0.20;99.90
23149;DHT22;11743;51.228;22.498;2023-11-21T02:10:21;-0.20;99.90
23149;DHT22;11743;51.228;22.498;2023-11-21T02:10:45;-0.10;99.90
23149;DHT22;11743;51.228;22.498;2023-11-21T02:11:08;-0.10;99.90
23149;DHT22;11743;51.228;22.498;2023-11-21T02:11:31;-0.10;99.90
23149;DHT22;11743;51.228;22.498;2023-11-21T02:11:53;-0.10;99.90
23149;DHT22;11743;51.228;22.498;2023-11-21T02:12:20;-0.10;99.90
23149;DHT22;11743;51.228;22.498;2023-11-21T02:12:42;-0.10;99.90
23149;DHT22;11743;51.228;22.498;2023-11-21T02:13:04;-0.10;99.90
23149;DHT22;11743;51.228;22.498;2023-11-21T02:13:27;-0.10;99.90
23149;DHT22;11743;51.228;22.498;2023-11-21T02:13:50;-0.10;99.90
23149;DHT22;11743;51.228;22.498;2023-11-21T02:14:12;-0.10;99.90
23149;DHT22;11743;51.228;22.498;2023-11-21T02:14:35;-0.20;99.90
23149;DHT22;11743;51.228;22.498;2023-11-21T02:14:58;-0.20;99.90
23149;DHT22;11743;51.228;22.498;2023-11-21T02:15:20;-0.10;99.90
23149;DHT22;11743;51.228;22.498;2023-11-21T02:15:42;-0.10;99.90
23149;DHT22;11743;51.228;22.498;2023-11-21T02:16:04;-0.10;99.90
23149;DHT22;11743;51.228;22.498;2023-11-21T02:16:27;-0.20;99.90
23149;DHT22;11743;51.228;22.498;2023-11-21T02:16:53;-0.10;99.90
23149;DHT22;11743;51.228;22.498;2023-11-21T02:17:15;-0.10;99.90
23149;DHT22;11743;51.228;22.498;2023-11-21T02:17:37;-0.10;99.90
23149;DHT22;11743;51.228;22.498;2023-11-21T02:17:59;-0.10;99.90
23149;DHT22;11743;51.228;22.498;2023-11-21T02:18:22;-0.10;99.90
23149;DHT22;11743;51.228;22.498;2023-11-21T02:18:44;-0.10;99.90
23149;DHT22;11743;51.228;22.498;2023-11-21T02:19:07;-0.10;99.90
23149;DHT22;11743;51.228;22.498;2023-11-21T02:19:31;-0.10;99.90
23149;DHT22;11743;51.228;22.498;2023-11-21T02:19:54;-0.10;99.90
23149;DHT22;11743;51.228;22.498;2023-11-21T02:20:15;-0.10;99.90
23149;DHT22;11743;51.228;22.498;2023-11-21T02:20:38;-0.10;99.90
23149;DHT22;11743;51.228;22.498;2023-11-21T02:21:04;-0.10;99.90
23149;DHT22;11743;51.228;22.498;2023-11-21T02:21:27;-0.10;99.90